sensor_id;sensor_type;location;lat;lon;timestamp;P1;durP1;ratioP1;P2;durP2;ratioP2
65581;SDS011;52231;40.090;18.348;2023-06-01T00:00:40;33.10;;;17.92;;
65581;SDS011;52231;40.090;18.348;2023-06-01T00:03:09;32.55;;;16.67;;
65581;SDS011;52231;40.090;18.348;2023-06-01T00:05:37;31.13;;;17.25;;
65581;SDS011;52231;40.090;18.348;2023-06-01T00:08:05;34.08;;;17.38;;
65581;SDS011;52231;40.090;18.348;2023-06-01T00:10:34;35.97;;;18.50;;
65581;SDS011;52231;40.090;18.348;2023-06-01T00:13:02;31.80;;;17.55;;
65581;SDS011;52231;40.090;18.348;2023-06-01T00:15:30;32.65;;;18.33;;
65581;SDS011;52231;40.090;18.348;2023-06-01T00:17:59;35.67;;;17.98;;
65581;SDS011;52231;40.090;18.348;2023-06-01T00:20:28;32.63;;;17.67;;
65581;SDS011;52231;40.090;18.348;2023-06-01T00:22:56;35.25;;;19.58;;
65581;SDS011;52231;40.090;18.348;2023-06-01T00:25:25;33.22;;;19.38;;
65581;SDS011;52231;40.090;18.348;2023-06-01T00:27:54;34.50;;;18.90;;
65581;SDS011;52231;40.090;18.348;2023-06-01T00:30:23;38.17;;;19.80;;
65581;SDS011;52231;40.090;18.348;2023-06-01T00:32:51;36.95;;;18.88;;
65581;SDS011;52231;40.090;18.348;2023-06-01T00:35:19;35.25;;;18.90;;
65581;SDS011;52231;40.090;18.348;2023-06-01T00:37:47;28.63;;;16.48;;
65581;SDS011;52231;40.090;18.348;2023-06-01T00:40:15;30.73;;;17.20;;
65581;SDS011;52231;40.090;18.348;2023-06-01T00:42:44;25.00;;;14.85;;
65581;SDS011;52231;40.090;18.348;2023-06-01T00:45:12;28.88;;;16.33;;
65581;SDS011;52231;40.090;18.348;2023-06-01T00:47:41;32.08;;;17.20;;
65581;SDS011;52231;40.090;18.348;2023-06-01T00:50:11;35.05;;;18.25;;
65581;SDS011;52231;40.090;18.348;2023-06-01T00:52:40;29.67;;;17.50;;
65581;SDS011;52231;40.090;18.348;2023-06-01T00:55:10;28.98;;;17.13;;
65581;SDS011;52231;40.090;18.348;2023-06-01T00:57:39;34.35;;;18.10;;
65581;SDS011;52231;40.090;18.348;2023-06-01T01:00:10;32.13;;;18.00;;
65581;SDS011;52231;40.090;18.348;2023-06-01T01:02:39;33.35;;;17.92;;
65581;SDS011;52231;40.090;18.348;2023-06-01T01:05:09;39.80;;;19.58;;
65581;SDS011;52231;40.090;18.348;2023-06-01T01:07:40;35.17;;;19.05;;
65581;SDS011;52231;40.090;18.348;2023-06-01T01:13:06;37.03;;;20.35;;
65581;SDS011;52231;40.090;18.348;2023-06-01T01:15:44;33.80;;;18.50;;
65581;SDS011;52231;40.090;18.348;2023-06-01T01:18:50;37.92;;;19.63;;
65581;SDS011;52231;40.090;18.348;2023-06-01T01:21:26;36.78;;;19.27;;
65581;SDS011;52231;40.090;18.348;2023-06-01T01:24:21;38.10;;;20.15;;
65581;SDS011;52231;40.090;18.348;2023-06-01T01:27:20;43.03;;;19.40;;
65581;SDS011;52231;40.090;18.348;2023-06-01T01:30:10;44.63;;;21.42;;
65581;SDS011;52231;40.090;18.348;2023-06-01T01:32:39;50.72;;;20.92;;
65581;SDS011;52231;40.090;18.348;2023-06-01T01:35:08;50.20;;;22.40;;
65581;SDS011;52231;40.090;18.348;2023-06-01T01:37:53;47.83;;;21.85;;
65581;SDS011;52231;40.090;18.348;2023-06-01T01:40:24;50.70;;;21.92;;
65581;SDS011;52231;40.090;18.348;2023-06-01T01:42:52;47.65;;;21.50;;
65581;SDS011;52231;40.090;18.348;2023-06-01T01:45:22;48.45;;;22.35;;
65581;SDS011;52231;40.090;18.348;2023-06-01T01:50:58;46.80;;;20.98;;
65581;SDS011;52231;40.090;18.348;2023-06-01T01:53:32;52.35;;;21.25;;
65581;SDS011;52231;40.090;18.348;2023-06-01T01:56:03;45.45;;;20.75;;
65581;SDS011;52231;40.090;18.348;2023-06-01T01:58:33;60.33;;;20.75;;
65581;SDS011;52231;40.090;18.348;2023-06-01T02:01:03;49.92;;;20.50;;
65581;SDS011;52231;40.090;18.348;2023-06-01T02:03:31;44.45;;;19.02;;
65581;SDS011;52231;40.090;18.348;2023-06-01T02:06:00;45.53;;;20.02;;
65581;SDS011;52231;40.090;18.348;2023-06-01T02:08:28;49.10;;;19.95;;
65581;SDS011;52231;40.090;18.348;2023-06-01T02:10:56;49.33;;;20.13;;
65581;SDS011;52231;40.090;18.348;2023-06-01T02:13:25;40.08;;;20.10;;
65581;SDS011;52231;40.090;18.348;2023-06-01T02:15:53;48.10;;;20.85;;
65581;SDS011;52231;40.090;18.348;2023-06-01T02:18:21;46.72;;;19.17;;
65581;SDS011;52231;40.090;18.348;2023-06-01T02:23:17;40.03;;;18.58;;
65581;SDS011;52231;40.090;18.348;2023-06-01T02:25:45;46.42;;;20.02;;
65581;SDS011;52231;40.090;18.348;2023-06-01T02:30:41;44.95;;;18.85;;
65581;SDS011;52231;40.090;18.348;2023-06-01T02:33:10;45.95;;;18.90;;
65581;SDS011;52231;40.090;18.348;2023-06-01T02:38:06;43.10;;;17.52;;
65581;SDS011;52231;40.090;18.348;2023-06-01T02:40:35;47.33;;;19.40;;
65581;SDS011;52231;40.090;18.348;2023-06-01T02:45:31;48.35;;;18.00;;
65581;SDS011;52231;40.090;18.348;2023-06-01T02:48:00;47.33;;;18.77;;
65581;SDS011;52231;40.090;18.348;2023-06-01T02:50:28;43.83;;;19.50;;
65581;SDS011;52231;40.090;18.348;2023-06-01T02:55:25;46.53;;;19.92;;
65581;SDS011;52231;40.090;18.348;2023-06-01T02:58:14;50.90;;;20.05;;
65581;SDS011;52231;40.090;18.348;2023-06-01T03:00:57;55.22;;;20.77;;
65581;SDS011;52231;40.090;18.348;2023-06-01T03:03:27;54.28;;;21.05;;
65581;SDS011;52231;40.090;18.348;2023-06-01T03:05:55;57.17;;;21.42;;
65581;SDS011;52231;40.090;18.348;2023-06-01T03:08:47;48.95;;;19.08;;
65581;SDS011;52231;40.090;18.348;2023-06-01T03:11:36;46.65;;;18.75;;
65581;SDS011;52231;40.090;18.348;2023-06-01T03:14:04;49.53;;;19.98;;
65581;SDS011;52231;40.090;18.348;2023-06-01T03:16:32;52.13;;;20.38;;
65581;SDS011;52231;40.090;18.348;2023-06-01T03:19:09;50.58;;;20.58;;
65581;SDS011;52231;40.090;18.348;2023-06-01T03:24:05;46.83;;;19.13;;
65581;SDS011;52231;40.090;18.348;2023-06-01T03:26:34;51.88;;;20.10;;
65581;SDS011;52231;40.090;18.348;2023-06-01T03:31:33;45.95;;;19.77;;
65581;SDS011;52231;40.090;18.348;2023-06-01T03:34:02;52.88;;;20.00;;
65581;SDS011;52231;40.090;18.348;2023-06-01T03:36:30;46.75;;;19.65;;
65581;SDS011;52231;40.090;18.348;2023-06-01T03:39:00;47.30;;;20.00;;
65581;SDS011;52231;40.090;18.348;2023-06-01T03:41:34;47.28;;;19.27;;
65581;SDS011;52231;40.090;18.348;2023-06-01T03:44:04;52.03;;;20.13;;
65581;SDS011;52231;40.090;18.348;2023-06-01T03:46:32;51.90;;;20.00;;
65581;SDS011;52231;40.090;18.348;2023-06-01T03:49:00;50.60;;;19.02;;
65581;SDS011;52231;40.090;18.348;2023-06-01T03:53:57;44.20;;;17.40;;
65581;SDS011;52231;40.090;18.348;2023-06-01T03:56:26;43.25;;;17.48;;
65581;SDS011;52231;40.090;18.348;2023-06-01T03:58:58;40.78;;;17.83;;
65581;SDS011;52231;40.090;18.348;2023-06-01T04:01:27;43.63;;;17.38;;
65581;SDS011;52231;40.090;18.348;2023-06-01T04:04:02;41.45;;;16.73;;
65581;SDS011;52231;40.090;18.348;2023-06-01T04:06:32;35.65;;;16.85;;
65581;SDS011;52231;40.090;18.348;2023-06-01T04:09:03;42.92;;;16.55;;
65581;SDS011;52231;40.090;18.348;2023-06-01T04:11:38;43.20;;;16.60;;
65581;SDS011;52231;40.090;18.348;2023-06-01T04:14:07;37.28;;;14.95;;
65581;SDS011;52231;40.090;18.348;2023-06-01T04:16:36;36.17;;;15.63;;
65581;SDS011;52231;40.090;18.348;2023-06-01T04:19:04;34.53;;;14.38;;
65581;SDS011;52231;40.090;18.348;2023-06-01T04:24:01;31.45;;;14.27;;
65581;SDS011;52231;40.090;18.348;2023-06-01T04:26:29;33.28;;;14.57;;
65581;SDS011;52231;40.090;18.348;2023-06-01T04:28:59;36.50;;;14.60;;
65581;SDS011;52231;40.090;18.348;2023-06-01T04:31:28;34.70;;;15.27;;
65581;SDS011;52231;40.090;18.348;2023-06-01T04:33:56;37.17;;;14.90;;
65581;SDS011;52231;40.090;18.348;2023-06-01T04:36:29;34.53;;;14.32;;
65581;SDS011;52231;40.090;18.348;2023-06-01T04:39:01;35.58;;;14.63;;
65581;SDS011;52231;40.090;18.348;2023-06-01T04:41:32;30.92;;;16.23;;
65581;SDS011;52231;40.090;18.348;2023-06-01T04:44:03;35.28;;;16.33;;
65581;SDS011;52231;40.090;18.348;2023-06-01T04:46:33;34.75;;;16.27;;
65581;SDS011;52231;40.090;18.348;2023-06-01T04:49:02;35.30;;;16.33;;
65581;SDS011;52231;40.090;18.348;2023-06-01T04:51:30;32.22;;;16.38;;
65581;SDS011;52231;40.090;18.348;2023-06-01T04:56:27;29.58;;;14.15;;
65581;SDS011;52231;40.090;18.348;2023-06-01T04:58:56;38.13;;;16.85;;
65581;SDS011;52231;40.090;18.348;2023-06-01T05:01:28;35.83;;;15.70;;
65581;SDS011;52231;40.090;18.348;2023-06-01T05:03:58;29.10;;;14.90;;
65581;SDS011;52231;40.090;18.348;2023-06-01T05:06:27;36.42;;;15.70;;
65581;SDS011;52231;40.090;18.348;2023-06-01T05:08:55;27.25;;;14.10;;
65581;SDS011;52231;40.090;18.348;2023-06-01T05:11:24;31.08;;;15.18;;
65581;SDS011;52231;40.090;18.348;2023-06-01T05:13:53;32.88;;;14.73;;
65581;SDS011;52231;40.090;18.348;2023-06-01T05:16:26;36.45;;;14.93;;
65581;SDS011;52231;40.090;18.348;2023-06-01T05:18:55;31.80;;;15.38;;
65581;SDS011;52231;40.090;18.348;2023-06-01T05:21:23;33.97;;;15.43;;
65581;SDS011;52231;40.090;18.348;2023-06-01T05:23:52;31.67;;;15.63;;
65581;SDS011;52231;40.090;18.348;2023-06-01T05:26:20;35.90;;;17.33;;
65581;SDS011;52231;40.090;18.348;2023-06-01T05:28:50;34.97;;;16.63;;
65581;SDS011;52231;40.090;18.348;2023-06-01T05:31:19;34.55;;;15.98;;
65581;SDS011;52231;40.090;18.348;2023-06-01T05:33:52;33.33;;;16.63;;
65581;SDS011;52231;40.090;18.348;2023-06-01T05:36:22;32.03;;;15.45;;
65581;SDS011;52231;40.090;18.348;2023-06-01T05:41:18;22.48;;;12.15;;
65581;SDS011;52231;40.090;18.348;2023-06-01T05:46:14;17.42;;;10.25;;
65581;SDS011;52231;40.090;18.348;2023-06-01T05:51:13;15.10;;;8.82;;
65581;SDS011;52231;40.090;18.348;2023-06-01T05:53:42;15.82;;;9.05;;
65581;SDS011;52231;40.090;18.348;2023-06-01T05:58:38;17.70;;;8.35;;
65581;SDS011;52231;40.090;18.348;2023-06-01T06:01:07;16.65;;;8.68;;
65581;SDS011;52231;40.090;18.348;2023-06-01T06:03:36;13.68;;;8.30;;
65581;SDS011;52231;40.090;18.348;2023-06-01T06:06:05;16.80;;;8.30;;
65581;SDS011;52231;40.090;18.348;2023-06-01T06:11:02;15.02;;;8.07;;
65581;SDS011;52231;40.090;18.348;2023-06-01T06:15:58;15.13;;;8.27;;
65581;SDS011;52231;40.090;18.348;2023-06-01T06:18:26;18.02;;;8.88;;
65581;SDS011;52231;40.090;18.348;2023-06-01T06:23:22;14.20;;;7.30;;
65581;SDS011;52231;40.090;18.348;2023-06-01T06:25:51;10.02;;;5.43;;
65581;SDS011;52231;40.090;18.348;2023-06-01T06:30:47;8.77;;;4.70;;
65581;SDS011;52231;40.090;18.348;2023-06-01T06:33:15;8.63;;;3.92;;
65581;SDS011;52231;40.090;18.348;2023-06-01T06:35:43;9.73;;;4.30;;
65581;SDS011;52231;40.090;18.348;2023-06-01T06:38:11;10.77;;;4.50;;
65581;SDS011;52231;40.090;18.348;2023-06-01T06:40:40;8.98;;;3.90;;
65581;SDS011;52231;40.090;18.348;2023-06-01T06:43:08;10.05;;;4.68;;
65581;SDS011;52231;40.090;18.348;2023-06-01T06:45:37;7.60;;;4.07;;
65581;SDS011;52231;40.090;18.348;2023-06-01T06:48:05;7.65;;;4.03;;
65581;SDS011;52231;40.090;18.348;2023-06-01T06:53:01;8.75;;;3.83;;
65581;SDS011;52231;40.090;18.348;2023-06-01T06:55:31;8.10;;;3.83;;
65581;SDS011;52231;40.090;18.348;2023-06-01T06:57:59;9.13;;;3.67;;
65581;SDS011;52231;40.090;18.348;2023-06-01T07:00:28;6.85;;;3.70;;
65581;SDS011;52231;40.090;18.348;2023-06-01T07:02:56;8.20;;;3.63;;
65581;SDS011;52231;40.090;18.348;2023-06-01T07:05:26;8.32;;;3.47;;
65581;SDS011;52231;40.090;18.348;2023-06-01T07:07:55;9.60;;;3.80;;
65581;SDS011;52231;40.090;18.348;2023-06-01T07:10:24;7.35;;;3.60;;
65581;SDS011;52231;40.090;18.348;2023-06-01T07:12:53;9.07;;;4.03;;
65581;SDS011;52231;40.090;18.348;2023-06-01T07:15:21;8.30;;;4.00;;
65581;SDS011;52231;40.090;18.348;2023-06-01T07:17:49;10.15;;;3.92;;
65581;SDS011;52231;40.090;18.348;2023-06-01T07:20:17;8.77;;;4.03;;
65581;SDS011;52231;40.090;18.348;2023-06-01T07:22:46;7.57;;;3.72;;
65581;SDS011;52231;40.090;18.348;2023-06-01T07:25:15;7.00;;;3.47;;
65581;SDS011;52231;40.090;18.348;2023-06-01T07:27:43;7.63;;;3.55;;
65581;SDS011;52231;40.090;18.348;2023-06-01T07:30:11;6.85;;;3.40;;
65581;SDS011;52231;40.090;18.348;2023-06-01T07:32:39;8.43;;;3.80;;
65581;SDS011;52231;40.090;18.348;2023-06-01T07:35:09;7.10;;;3.35;;
65581;SDS011;52231;40.090;18.348;2023-06-01T07:37:37;7.55;;;3.58;;
65581;SDS011;52231;40.090;18.348;2023-06-01T07:40:07;9.32;;;3.90;;
65581;SDS011;52231;40.090;18.348;2023-06-01T07:42:35;8.98;;;4.03;;
65581;SDS011;52231;40.090;18.348;2023-06-01T07:45:04;6.57;;;2.95;;
65581;SDS011;52231;40.090;18.348;2023-06-01T07:47:33;7.40;;;3.20;;
65581;SDS011;52231;40.090;18.348;2023-06-01T07:50:01;14.07;;;5.90;;
65581;SDS011;52231;40.090;18.348;2023-06-01T07:52:30;12.35;;;5.10;;
65581;SDS011;52231;40.090;18.348;2023-06-01T07:54:58;9.50;;;3.90;;
65581;SDS011;52231;40.090;18.348;2023-06-01T07:57:26;8.32;;;4.00;;
65581;SDS011;52231;40.090;18.348;2023-06-01T07:59:55;9.63;;;4.50;;
65581;SDS011;52231;40.090;18.348;2023-06-01T08:02:23;7.72;;;3.95;;
65581;SDS011;52231;40.090;18.348;2023-06-01T08:04:53;8.40;;;4.03;;
65581;SDS011;52231;40.090;18.348;2023-06-01T08:07:24;10.43;;;4.57;;
65581;SDS011;52231;40.090;18.348;2023-06-01T08:09:56;8.27;;;3.40;;
65581;SDS011;52231;40.090;18.348;2023-06-01T08:12:25;9.48;;;3.97;;
65581;SDS011;52231;40.090;18.348;2023-06-01T08:14:53;7.22;;;3.50;;
65581;SDS011;52231;40.090;18.348;2023-06-01T08:17:24;8.18;;;4.00;;
65581;SDS011;52231;40.090;18.348;2023-06-01T08:19:53;13.77;;;6.63;;
65581;SDS011;52231;40.090;18.348;2023-06-01T08:22:24;10.32;;;3.70;;
65581;SDS011;52231;40.090;18.348;2023-06-01T08:24:52;10.90;;;3.70;;
65581;SDS011;52231;40.090;18.348;2023-06-01T08:27:21;9.45;;;3.40;;
65581;SDS011;52231;40.090;18.348;2023-06-01T08:29:52;8.48;;;4.07;;
65581;SDS011;52231;40.090;18.348;2023-06-01T08:32:21;6.70;;;3.53;;
65581;SDS011;52231;40.090;18.348;2023-06-01T08:34:49;6.57;;;3.42;;
65581;SDS011;52231;40.090;18.348;2023-06-01T08:37:18;10.32;;;3.88;;
65581;SDS011;52231;40.090;18.348;2023-06-01T08:39:46;7.15;;;3.50;;
65581;SDS011;52231;40.090;18.348;2023-06-01T08:42:24;7.45;;;3.53;;
65581;SDS011;52231;40.090;18.348;2023-06-01T08:45:03;5.22;;;2.85;;
65581;SDS011;52231;40.090;18.348;2023-06-01T08:47:32;7.93;;;3.40;;
65581;SDS011;52231;40.090;18.348;2023-06-01T08:50:04;5.82;;;3.10;;
65581;SDS011;52231;40.090;18.348;2023-06-01T08:52:33;7.70;;;3.03;;
65581;SDS011;52231;40.090;18.348;2023-06-01T08:55:03;6.95;;;3.60;;
65581;SDS011;52231;40.090;18.348;2023-06-01T08:57:32;9.23;;;3.80;;
65581;SDS011;52231;40.090;18.348;2023-06-01T09:00:00;6.93;;;3.60;;
65581;SDS011;52231;40.090;18.348;2023-06-01T09:02:28;7.80;;;3.40;;
65581;SDS011;52231;40.090;18.348;2023-06-01T09:04:56;6.88;;;2.88;;
65581;SDS011;52231;40.090;18.348;2023-06-01T09:07:24;6.43;;;2.95;;
65581;SDS011;52231;40.090;18.348;2023-06-01T09:09:53;8.50;;;3.10;;
65581;SDS011;52231;40.090;18.348;2023-06-01T09:15:06;7.65;;;3.20;;
65581;SDS011;52231;40.090;18.348;2023-06-01T09:17:46;7.82;;;3.60;;
65581;SDS011;52231;40.090;18.348;2023-06-01T09:20:24;5.53;;;3.20;;
65581;SDS011;52231;40.090;18.348;2023-06-01T09:22:54;7.70;;;3.40;;
65581;SDS011;52231;40.090;18.348;2023-06-01T09:25:26;6.63;;;3.25;;
65581;SDS011;52231;40.090;18.348;2023-06-01T09:27:58;6.22;;;3.30;;
65581;SDS011;52231;40.090;18.348;2023-06-01T09:30:41;5.57;;;3.10;;
65581;SDS011;52231;40.090;18.348;2023-06-01T09:33:11;6.57;;;3.17;;
65581;SDS011;52231;40.090;18.348;2023-06-01T09:35:48;9.25;;;3.10;;
65581;SDS011;52231;40.090;18.348;2023-06-01T09:38:24;7.15;;;3.50;;
65581;SDS011;52231;40.090;18.348;2023-06-01T09:41:02;8.35;;;3.20;;
65581;SDS011;52231;40.090;18.348;2023-06-01T09:43:33;7.40;;;3.60;;
65581;SDS011;52231;40.090;18.348;2023-06-01T09:48:36;8.70;;;4.13;;
65581;SDS011;52231;40.090;18.348;2023-06-01T09:51:05;5.90;;;3.10;;
65581;SDS011;52231;40.090;18.348;2023-06-01T09:53:50;6.68;;;2.97;;
65581;SDS011;52231;40.090;18.348;2023-06-01T09:56:18;5.80;;;3.00;;
65581;SDS011;52231;40.090;18.348;2023-06-01T09:58:46;5.53;;;2.95;;
65581;SDS011;52231;40.090;18.348;2023-06-01T10:01:17;7.03;;;3.13;;
65581;SDS011;52231;40.090;18.348;2023-06-01T10:03:46;8.93;;;3.55;;
65581;SDS011;52231;40.090;18.348;2023-06-01T10:06:20;7.38;;;3.03;;
65581;SDS011;52231;40.090;18.348;2023-06-01T10:08:48;10.35;;;3.60;;
65581;SDS011;52231;40.090;18.348;2023-06-01T10:11:18;6.47;;;3.10;;
65581;SDS011;52231;40.090;18.348;2023-06-01T10:13:47;7.32;;;3.10;;
65581;SDS011;52231;40.090;18.348;2023-06-01T10:16:15;8.25;;;3.40;;
65581;SDS011;52231;40.090;18.348;2023-06-01T10:18:44;7.45;;;3.20;;
65581;SDS011;52231;40.090;18.348;2023-06-01T10:21:15;8.00;;;3.47;;
65581;SDS011;52231;40.090;18.348;2023-06-01T10:23:45;7.85;;;3.38;;
65581;SDS011;52231;40.090;18.348;2023-06-01T10:26:14;9.70;;;3.35;;
65581;SDS011;52231;40.090;18.348;2023-06-01T10:28:47;7.88;;;3.35;;
65581;SDS011;52231;40.090;18.348;2023-06-01T10:31:33;8.35;;;3.83;;
65581;SDS011;52231;40.090;18.348;2023-06-01T10:34:06;7.72;;;3.53;;
65581;SDS011;52231;40.090;18.348;2023-06-01T10:39:24;8.18;;;3.95;;
65581;SDS011;52231;40.090;18.348;2023-06-01T10:41:57;8.02;;;3.63;;
65581;SDS011;52231;40.090;18.348;2023-06-01T10:50:21;10.05;;;3.67;;
65581;SDS011;52231;40.090;18.348;2023-06-01T10:52:33;8.27;;;3.50;;
65581;SDS011;52231;40.090;18.348;2023-06-01T10:57:34;7.95;;;3.58;;
65581;SDS011;52231;40.090;18.348;2023-06-01T11:00:13;8.60;;;3.70;;
65581;SDS011;52231;40.090;18.348;2023-06-01T11:05:44;10.10;;;3.47;;
65581;SDS011;52231;40.090;18.348;2023-06-01T11:13:33;7.95;;;3.60;;
65581;SDS011;52231;40.090;18.348;2023-06-01T11:21:09;8.55;;;3.60;;
65581;SDS011;52231;40.090;18.348;2023-06-01T11:23:38;6.82;;;3.53;;
65581;SDS011;52231;40.090;18.348;2023-06-01T11:26:06;7.70;;;3.88;;
65581;SDS011;52231;40.090;18.348;2023-06-01T11:28:35;7.95;;;3.63;;
65581;SDS011;52231;40.090;18.348;2023-06-01T11:31:03;8.48;;;3.78;;
65581;SDS011;52231;40.090;18.348;2023-06-01T11:33:38;7.72;;;3.42;;
65581;SDS011;52231;40.090;18.348;2023-06-01T11:36:08;7.85;;;3.75;;
65581;SDS011;52231;40.090;18.348;2023-06-01T11:38:38;8.27;;;3.33;;
65581;SDS011;52231;40.090;18.348;2023-06-01T11:41:08;7.65;;;3.47;;
65581;SDS011;52231;40.090;18.348;2023-06-01T11:43:37;7.65;;;3.42;;
65581;SDS011;52231;40.090;18.348;2023-06-01T11:46:06;8.02;;;3.45;;
65581;SDS011;52231;40.090;18.348;2023-06-01T11:48:43;9.80;;;3.60;;
65581;SDS011;52231;40.090;18.348;2023-06-01T11:51:29;11.65;;;3.40;;
65581;SDS011;52231;40.090;18.348;2023-06-01T11:54:03;7.53;;;3.40;;
65581;SDS011;52231;40.090;18.348;2023-06-01T11:56:33;7.30;;;3.10;;
65581;SDS011;52231;40.090;18.348;2023-06-01T11:59:03;7.30;;;2.58;;
65581;SDS011;52231;40.090;18.348;2023-06-01T12:01:43;5.32;;;2.33;;
65581;SDS011;52231;40.090;18.348;2023-06-01T12:04:14;5.45;;;2.33;;
65581;SDS011;52231;40.090;18.348;2023-06-01T12:07:03;5.57;;;2.30;;
65581;SDS011;52231;40.090;18.348;2023-06-01T12:09:33;8.25;;;2.15;;
65581;SDS011;52231;40.090;18.348;2023-06-01T12:12:03;5.75;;;2.30;;
65581;SDS011;52231;40.090;18.348;2023-06-01T12:14:33;5.78;;;2.20;;
65581;SDS011;52231;40.090;18.348;2023-06-01T12:17:01;6.57;;;2.45;;
65581;SDS011;52231;40.090;18.348;2023-06-01T12:19:32;5.32;;;2.15;;
65581;SDS011;52231;40.090;18.348;2023-06-01T12:22:00;6.03;;;2.45;;
65581;SDS011;52231;40.090;18.348;2023-06-01T12:24:30;4.15;;;2.33;;
65581;SDS011;52231;40.090;18.348;2023-06-01T12:27:00;5.28;;;2.15;;
65581;SDS011;52231;40.090;18.348;2023-06-01T12:29:40;5.72;;;2.30;;
65581;SDS011;52231;40.090;18.348;2023-06-01T12:32:11;6.78;;;2.25;;
65581;SDS011;52231;40.090;18.348;2023-06-01T12:34:42;6.88;;;2.35;;
65581;SDS011;52231;40.090;18.348;2023-06-01T12:37:20;4.43;;;2.28;;
65581;SDS011;52231;40.090;18.348;2023-06-01T12:39:51;9.25;;;3.03;;
65581;SDS011;52231;40.090;18.348;2023-06-01T12:42:36;8.38;;;2.90;;
65581;SDS011;52231;40.090;18.348;2023-06-01T12:45:05;9.98;;;3.83;;
65581;SDS011;52231;40.090;18.348;2023-06-01T12:47:35;13.65;;;4.13;;
65581;SDS011;52231;40.090;18.348;2023-06-01T12:50:06;10.80;;;4.07;;
65581;SDS011;52231;40.090;18.348;2023-06-01T12:52:36;9.48;;;3.70;;
65581;SDS011;52231;40.090;18.348;2023-06-01T12:55:05;8.95;;;4.25;;
65581;SDS011;52231;40.090;18.348;2023-06-01T12:57:35;10.90;;;4.45;;
65581;SDS011;52231;40.090;18.348;2023-06-01T13:00:09;14.90;;;4.78;;
65581;SDS011;52231;40.090;18.348;2023-06-01T13:02:39;11.27;;;4.20;;
65581;SDS011;52231;40.090;18.348;2023-06-01T13:05:07;11.88;;;4.13;;
65581;SDS011;52231;40.090;18.348;2023-06-01T13:07:36;8.85;;;3.67;;
65581;SDS011;52231;40.090;18.348;2023-06-01T13:10:04;9.38;;;4.05;;
65581;SDS011;52231;40.090;18.348;2023-06-01T13:12:34;8.55;;;3.90;;
65581;SDS011;52231;40.090;18.348;2023-06-01T13:15:02;8.40;;;4.10;;
65581;SDS011;52231;40.090;18.348;2023-06-01T13:17:30;9.63;;;3.70;;
65581;SDS011;52231;40.090;18.348;2023-06-01T13:19:59;9.63;;;3.50;;
65581;SDS011;52231;40.090;18.348;2023-06-01T13:22:28;7.32;;;3.55;;
65581;SDS011;52231;40.090;18.348;2023-06-01T13:24:56;6.00;;;3.17;;
65581;SDS011;52231;40.090;18.348;2023-06-01T13:27:31;7.72;;;3.38;;
65581;SDS011;52231;40.090;18.348;2023-06-01T13:30:02;8.15;;;3.75;;
65581;SDS011;52231;40.090;18.348;2023-06-01T13:32:31;7.05;;;3.53;;
65581;SDS011;52231;40.090;18.348;2023-06-01T13:35:00;10.95;;;3.95;;
65581;SDS011;52231;40.090;18.348;2023-06-01T13:37:30;7.93;;;3.70;;
65581;SDS011;52231;40.090;18.348;2023-06-01T13:39:58;9.02;;;3.72;;
65581;SDS011;52231;40.090;18.348;2023-06-01T13:42:26;8.40;;;4.03;;
65581;SDS011;52231;40.090;18.348;2023-06-01T13:44:54;8.95;;;4.35;;
65581;SDS011;52231;40.090;18.348;2023-06-01T13:47:22;9.15;;;3.83;;
65581;SDS011;52231;40.090;18.348;2023-06-01T13:49:51;8.35;;;3.90;;
65581;SDS011;52231;40.090;18.348;2023-06-01T13:52:19;7.63;;;3.55;;
65581;SDS011;52231;40.090;18.348;2023-06-01T13:54:48;8.35;;;3.97;;
65581;SDS011;52231;40.090;18.348;2023-06-01T13:57:16;8.80;;;4.00;;
65581;SDS011;52231;40.090;18.348;2023-06-01T13:59:44;9.55;;;3.88;;
65581;SDS011;52231;40.090;18.348;2023-06-01T14:02:13;9.57;;;3.88;;
65581;SDS011;52231;40.090;18.348;2023-06-01T14:04:41;8.95;;;3.78;;
65581;SDS011;52231;40.090;18.348;2023-06-01T14:07:09;8.07;;;4.05;;
65581;SDS011;52231;40.090;18.348;2023-06-01T14:09:37;9.07;;;3.72;;
65581;SDS011;52231;40.090;18.348;2023-06-01T14:12:06;8.25;;;3.90;;
65581;SDS011;52231;40.090;18.348;2023-06-01T14:14:34;9.68;;;4.03;;
65581;SDS011;52231;40.090;18.348;2023-06-01T14:17:03;8.95;;;3.97;;
65581;SDS011;52231;40.090;18.348;2023-06-01T14:19:32;9.32;;;4.35;;
65581;SDS011;52231;40.090;18.348;2023-06-01T14:22:00;8.38;;;4.00;;
65581;SDS011;52231;40.090;18.348;2023-06-01T14:24:28;8.70;;;3.90;;
65581;SDS011;52231;40.090;18.348;2023-06-01T14:26:56;10.35;;;4.03;;
65581;SDS011;52231;40.090;18.348;2023-06-01T14:29:24;9.63;;;4.32;;
65581;SDS011;52231;40.090;18.348;2023-06-01T14:31:53;9.98;;;4.20;;
65581;SDS011;52231;40.090;18.348;2023-06-01T14:34:21;7.93;;;3.97;;
65581;SDS011;52231;40.090;18.348;2023-06-01T14:36:49;9.25;;;3.97;;
65581;SDS011;52231;40.090;18.348;2023-06-01T14:39:17;9.63;;;4.40;;
65581;SDS011;52231;40.090;18.348;2023-06-01T14:41:45;8.85;;;4.30;;
65581;SDS011;52231;40.090;18.348;2023-06-01T14:44:14;7.57;;;4.25;;
65581;SDS011;52231;40.090;18.348;2023-06-01T14:46:42;10.30;;;4.22;;
65581;SDS011;52231;40.090;18.348;2023-06-01T14:49:10;8.25;;;4.10;;
65581;SDS011;52231;40.090;18.348;2023-06-01T14:51:38;9.70;;;4.07;;
65581;SDS011;52231;40.090;18.348;2023-06-01T14:54:07;9.13;;;4.50;;
65581;SDS011;52231;40.090;18.348;2023-06-01T14:56:35;8.35;;;3.80;;
65581;SDS011;52231;40.090;18.348;2023-06-01T14:59:03;10.45;;;3.83;;
65581;SDS011;52231;40.090;18.348;2023-06-01T15:01:31;8.25;;;3.70;;
65581;SDS011;52231;40.090;18.348;2023-06-01T15:03:59;8.25;;;3.88;;
65581;SDS011;52231;40.090;18.348;2023-06-01T15:06:27;9.10;;;3.95;;
65581;SDS011;52231;40.090;18.348;2023-06-01T15:08:56;8.25;;;3.80;;
65581;SDS011;52231;40.090;18.348;2023-06-01T15:11:24;9.90;;;4.15;;
65581;SDS011;52231;40.090;18.348;2023-06-01T15:13:53;8.07;;;3.50;;
65581;SDS011;52231;40.090;18.348;2023-06-01T15:16:22;7.93;;;3.72;;
65581;SDS011;52231;40.090;18.348;2023-06-01T15:18:50;8.02;;;3.65;;
65581;SDS011;52231;40.090;18.348;2023-06-01T15:23:47;8.00;;;3.70;;
65581;SDS011;52231;40.090;18.348;2023-06-01T15:26:15;7.70;;;3.83;;
65581;SDS011;52231;40.090;18.348;2023-06-01T15:28:43;8.20;;;3.72;;
65581;SDS011;52231;40.090;18.348;2023-06-01T15:31:11;8.15;;;3.63;;
65581;SDS011;52231;40.090;18.348;2023-06-01T15:33:40;7.38;;;3.53;;
65581;SDS011;52231;40.090;18.348;2023-06-01T15:36:08;8.23;;;3.50;;
65581;SDS011;52231;40.090;18.348;2023-06-01T15:38:36;7.72;;;3.70;;
65581;SDS011;52231;40.090;18.348;2023-06-01T15:41:07;8.05;;;3.80;;
65581;SDS011;52231;40.090;18.348;2023-06-01T15:43:35;9.23;;;3.60;;
65581;SDS011;52231;40.090;18.348;2023-06-01T15:46:04;7.25;;;3.40;;
65581;SDS011;52231;40.090;18.348;2023-06-01T15:48:33;8.85;;;3.60;;
65581;SDS011;52231;40.090;18.348;2023-06-01T15:51:01;8.23;;;3.38;;
65581;SDS011;52231;40.090;18.348;2023-06-01T15:53:29;8.90;;;3.38;;
65581;SDS011;52231;40.090;18.348;2023-06-01T15:55:57;6.78;;;3.28;;
65581;SDS011;52231;40.090;18.348;2023-06-01T15:58:26;9.38;;;3.90;;
65581;SDS011;52231;40.090;18.348;2023-06-01T16:00:54;7.03;;;3.20;;
65581;SDS011;52231;40.090;18.348;2023-06-01T16:03:24;7.13;;;3.38;;
65581;SDS011;52231;40.090;18.348;2023-06-01T16:05:52;7.90;;;3.63;;